Edmonton International Airport
CYEG : now visible

Airfield :











YOU CAN JOIN US ON...

 
LOGIN :

Register | Disclaimer

   EN    FR    IT 

 









Legend :    VFR   Marginal VFR   IFR   Intensive IFR   Very Intensive IFR
Visi :
Ceiling :
>= 8 km
>= 3000ft
5 to 8 km
1000 to 3000 ft
1500m to 5 km
500 to 1000 ft
800 to 1500m
200 to 500 ft
< 800m
< 200 ft
Symbols :   Thunderstorms  Fog  Heavy snow  Heavy precipitations  Wind > 20 kt






- Airport Elevation : 2373 ft
- IATA code : YEG


CYEG - Edmonton International

CURRENT METAR :
  • 120300Z 14009KT 10SM -SN DRSN OVC048 M12/M15 A2987 RMK SC8 SLP174

EXPIRED METARs :
  • 120255Z 14008KT 10SM -SN DRSN OVC048 M12/M15 A2988 RMK SC8 SLP175
  • 120214Z 14010KT 2SM -SN DRSN OVC044 M13/M15 A2989 RMK SN7SC1 SLP178
  • 120200Z 13008KT 5SM -SN VV014 M13/M15 A2990 RMK SN8 SLP182
  • 120100Z 14010KT 15SM -SN OVC050 M13/M16 A2991 RMK SC8 SLP186

TAF AMD TAF CYEG
Valid from the 12 at 03:00 until the 13 at 00:00 UTC


120312Z 1203/1224 15008KT 6SM -SN SCT020 OVC050
TEMPO 1203/1206 11/2SM -SN VV012
BECMG 1206/1208 P6SM -SN SCT015 OVC025
FM120800 14008KT P6SM -SN SCT015 OVC025
TEMPO 1208/1212 4SM -SN BKN015
FM121200 14008KT P6SM -SN SCT010 OVC020
TEMPO 1212/1217 4SM -SN OVC010
FM121700 09005KT P6SM -SN SCT015 OVC030
TEMPO 1217/1219 3SM -SN BKN015
BECMG 1219/1221 11/2SM -SN VV012
FM122100 03008KT 11/2SM -SN VV012
TEMPO 1221/1224 3/4SM -SHSN VV008 RMK NXT FCST BY 120600Z



MET'MAP, your aeronautical weather chart ! - Copyright ORBIFLY December 2007 - Disclaimer

ORBIFLY MET'MAP TEAM :

Programming & Development : Alexandra Zaïnal
Concept & original design : Baudouin d'Aumeries
Assistance for programming : Marc-Olivier Méhu
Technical & hardware support : Manuel Goepfert

Contact : metmap@orbifly.com




SOURCES & CREDITS :

   NOAA       Earth
Advisory